METAR Data
IDs: Format: Raw Decoded Include TAF

Data at: 0723 UTC 19 Aug 2022

KHWD 190654Z 30004KT 10SM OVC007 16/14 A2993 RMK AO2 SLP143 T01610139
No TAF found for KHWD

KBFL 190654Z AUTO 00000KT 7SM CLR 30/14 A2983 RMK AO2 SLP094 T03000139 TSNO

KBFL 190520Z 1906/2006 34005KT P6SM SKC

KIFP 190715Z AUTO 00000KT 10SM CLR 32/18 A2980 RMK AO2

KIFP 190520Z 1906/2006 01009KT P6SM SCT120 BKN200
  FM191200 VRB06KT P6SM BKN200
  FM192000 18010KT P6SM VCTS SCT120CB SCT200
  PROB30 1922/2001 VRB20G30KT P6SM TSRA BKN120CB
  FM200100 35008KT P6SM SCT200